Time;durP1;ratioP1;P1;durP2;ratioP2;P2;SDS_P1;SDS_P2;PMS_P1;PMS_P2;Temp;Humidity;BMP_temperature;BMP_pressure;BME280_temperature;BME280_humidity;BME280_pressure;Samples;Min_cycle;Max_cycle;Signal;HPM_P1;HPM_P2
2022/02/19 00:02:09;;;;;;;20.35;3.30;;;6.30;99.90;;;;;;4999657;28;20043;-88
2022/02/19 00:04:36;;;;;;;14.35;2.70;;;6.40;99.90;;;;;;4999263;28;20049;-92
2022/02/19 00:07:03;;;;;;;17.45;2.63;;;6.40;99.90;;;;;;4999083;28;20035;-85
2022/02/19 00:09:29;;;;;;;16.27;3.03;;;6.30;99.90;;;;;;4998632;28;20037;-88
2022/02/19 00:11:55;;;;;;;12.10;2.33;;;6.30;99.90;;;;;;4982426;28;20038;-88
2022/02/19 00:14:21;;;;;;;14.27;2.50;;;6.30;99.90;;;;;;4998287;28;20029;-90
2022/02/19 00:16:46;;;;;;;13.07;2.15;;;6.30;99.90;;;;;;4999206;28;20046;-89
2022/02/19 00:19:12;;;;;;;10.27;2.33;;;6.40;99.90;;;;;;5000238;28;20150;-89
2022/02/19 00:21:38;;;;;;;16.35;2.67;;;6.30;99.90;;;;;;4998857;28;20053;-88
2022/02/19 00:24:04;;;;;;;16.25;2.28;;;6.30;99.90;;;;;;4998938;28;20030;-88
2022/02/19 00:26:30;;;;;;;15.05;2.38;;;6.30;99.90;;;;;;5000557;28;20045;-90
2022/02/19 00:28:56;;;;;;;16.75;2.10;;;6.30;99.90;;;;;;4997682;28;20030;-89
2022/02/19 00:31:22;;;;;;;13.50;1.98;;;6.30;99.90;;;;;;4999449;28;20081;-88
2022/02/19 00:33:48;;;;;;;15.88;2.38;;;6.30;99.90;;;;;;4999239;28;20027;-88
2022/02/19 00:36:13;;;;;;;10.82;2.03;;;6.30;99.90;;;;;;4999529;28;20030;-89
2022/02/19 00:38:39;;;;;;;15.25;2.70;;;6.30;99.90;;;;;;5001710;28;20026;-88
2022/02/19 00:41:05;;;;;;;13.18;2.20;;;6.20;99.90;;;;;;5002138;28;20423;-88
2022/02/19 00:43:31;;;;;;;13.85;2.83;;;6.20;99.90;;;;;;5011463;28;20034;-86
2022/02/19 00:45:56;;;;;;;14.85;2.00;;;6.10;99.90;;;;;;5017367;28;20033;-86
2022/02/19 00:48:23;;;;;;;17.38;2.67;;;6.10;99.90;;;;;;5017983;28;20042;-85
2022/02/19 00:50:49;;;;;;;18.05;2.38;;;6.10;99.90;;;;;;5017232;28;20062;-83
2022/02/19 00:53:15;;;;;;;10.68;1.98;;;6.10;99.90;;;;;;5017840;28;20033;-86
2022/02/19 00:55:41;;;;;;;12.00;1.75;;;6.10;99.90;;;;;;5011510;28;20036;-87
2022/02/19 00:58:08;;;;;;;14.82;3.00;;;6.10;99.90;;;;;;5004663;28;20054;-89
2022/02/19 01:00:34;;;;;;;10.75;2.20;;;6.10;99.90;;;;;;5003940;28;20431;-89
2022/02/19 01:03:00;;;;;;;19.98;2.33;;;6.00;99.90;;;;;;5002117;28;20045;-88
2022/02/19 01:05:26;;;;;;;13.70;1.83;;;6.10;99.90;;;;;;5019459;28;20480;-88
2022/02/19 01:07:52;;;;;;;12.80;2.75;;;6.10;99.90;;;;;;5017464;28;20038;-87
2022/02/19 01:10:18;;;;;;;22.98;3.20;;;6.10;99.90;;;;;;5017296;28;20072;-88
2022/02/19 01:12:44;;;;;;;23.10;3.85;;;6.10;99.90;;;;;;5017026;28;20117;-88
2022/02/19 01:15:11;;;;;;;13.82;2.90;;;6.20;99.90;;;;;;5016887;28;20026;-88
2022/02/19 01:17:38;;;;;;;17.00;2.15;;;6.20;99.90;;;;;;4998822;28;20129;-89
2022/02/19 01:20:05;;;;;;;13.13;2.50;;;6.20;99.90;;;;;;4999475;28;20073;-89
2022/02/19 01:22:33;;;;;;;13.98;3.25;;;6.20;99.90;;;;;;4998965;28;20491;-86
2022/02/19 01:24:58;;;;;;;11.88;2.42;;;6.20;99.90;;;;;;5016798;28;20030;-89
2022/02/19 01:27:24;;;;;;;15.32;2.28;;;6.10;99.90;;;;;;4999097;28;20026;-89
2022/02/19 01:29:49;;;;;;;13.70;2.55;;;6.10;99.90;;;;;;4999066;28;20025;-89
2022/02/19 01:32:15;;;;;;;18.10;2.78;;;6.10;99.90;;;;;;4998309;28;20495;-88
2022/02/19 01:34:41;;;;;;;14.18;2.33;;;6.10;99.90;;;;;;4999472;28;20484;-89
2022/02/19 01:37:07;;;;;;;17.77;2.65;;;6.10;99.90;;;;;;4998502;28;20140;-87
2022/02/19 01:39:33;;;;;;;13.55;2.10;;;6.20;99.90;;;;;;4998494;28;20476;-88
2022/02/19 01:41:59;;;;;;;14.63;2.78;;;6.20;99.90;;;;;;5016761;28;20077;-86
2022/02/19 01:44:37;;;;;;;8.63;1.98;;;6.10;99.90;;;;;;5016615;28;20037;-88
2022/02/19 01:47:04;;;;;;;13.02;2.40;;;6.10;99.90;;;;;;4998291;28;20553;-88
2022/02/19 01:49:30;;;;;;;6.22;1.20;;;6.00;99.90;;;;;;5015910;28;20026;-88
2022/02/19 01:51:56;;;;;;;14.18;2.55;;;6.10;99.90;;;;;;4998723;28;20121;-89
2022/02/19 01:54:21;;;;;;;11.90;1.80;;;6.10;99.90;;;;;;4999459;28;20469;-87
2022/02/19 01:56:47;;;;;;;10.98;1.67;;;6.10;99.90;;;;;;5000332;28;20065;-89
2022/02/19 01:59:13;;;;;;;13.68;2.17;;;6.10;99.90;;;;;;5000621;28;20022;-86
2022/02/19 02:01:39;;;;;;;8.48;1.75;;;6.10;99.90;;;;;;5005379;28;20072;-88
2022/02/19 02:04:04;;;;;;;12.75;2.10;;;6.10;99.90;;;;;;5024384;28;20026;-85
2022/02/19 02:06:30;;;;;;;6.97;1.40;;;6.10;99.90;;;;;;5007078;28;20085;-85
2022/02/19 02:09:00;;;;;;;8.50;1.55;;;6.10;99.90;;;;;;5022563;28;20069;-84
2022/02/19 02:11:26;;;;;;;11.55;1.55;;;6.10;99.90;;;;;;5005069;28;20610;-88
2022/02/19 02:13:52;;;;;;;7.20;1.27;;;6.10;99.90;;;;;;4999018;28;20108;-87
2022/02/19 02:16:18;;;;;;;9.02;1.25;;;6.10;99.90;;;;;;4999118;28;20476;-86
2022/02/19 02:18:45;;;;;;;7.50;1.35;;;6.10;99.90;;;;;;5020350;28;20052;-87
2022/02/19 02:21:11;;;;;;;15.23;2.83;;;6.00;99.90;;;;;;4999430;28;20029;-89
2022/02/19 02:23:37;;;;;;;9.93;1.33;;;6.10;99.90;;;;;;4999919;28;20045;-87
2022/02/19 02:26:04;;;;;;;10.05;1.58;;;6.00;99.90;;;;;;4999722;28;20041;-88
2022/02/19 02:28:30;;;;;;;11.43;2.53;;;6.10;99.90;;;;;;5001602;28;20021;-87
2022/02/19 02:30:56;;;;;;;8.98;1.60;;;6.10;99.90;;;;;;5017489;28;20030;-88
2022/02/19 02:33:23;;;;;;;9.73;1.23;;;6.10;99.90;;;;;;4997875;28;20124;-89
2022/02/19 02:35:50;;;;;;;9.13;1.75;;;6.10;99.90;;;;;;5016597;28;20094;-89
2022/02/19 02:38:16;;;;;;;8.52;1.27;;;6.10;99.90;;;;;;4994274;28;20062;-88
2022/02/19 02:40:41;;;;;;;10.07;1.50;;;6.10;99.90;;;;;;4994270;28;20031;-89
2022/02/19 02:43:07;;;;;;;9.25;1.50;;;6.10;99.90;;;;;;4994643;28;20038;-86
2022/02/19 02:45:35;;;;;;;7.93;1.67;;;6.00;99.90;;;;;;4994096;28;20022;-88
2022/02/19 02:48:01;;;;;;;9.48;1.60;;;6.10;99.90;;;;;;4995532;28;20054;-88
2022/02/19 02:50:28;;;;;;;9.60;1.67;;;6.10;99.90;;;;;;4994330;28;20030;-87
2022/02/19 02:52:53;;;;;;;5.28;1.40;;;6.10;99.90;;;;;;4994138;28;20046;-88
2022/02/19 02:55:19;;;;;;;6.95;1.33;;;6.10;99.90;;;;;;4993970;28;20030;-89
2022/02/19 02:57:45;;;;;;;9.77;1.60;;;6.10;99.90;;;;;;4995528;28;20137;-88
2022/02/19 03:00:13;;;;;;;8.05;1.58;;;6.10;99.90;;;;;;4994330;28;20492;-88
2022/02/19 03:02:39;;;;;;;7.18;1.52;;;6.10;99.90;;;;;;4995002;28;20176;-89
2022/02/19 03:05:08;;;;;;;11.20;1.58;;;6.10;99.90;;;;;;4993936;28;20030;-88
2022/02/19 03:07:35;;;;;;;7.60;1.40;;;6.10;99.90;;;;;;4994107;28;20548;-88
2022/02/19 03:10:02;;;;;;;12.18;2.08;;;6.00;99.90;;;;;;4993579;28;20496;-86
2022/02/19 03:12:28;;;;;;;8.93;1.92;;;6.10;99.90;;;;;;4993743;28;20439;-88
2022/02/19 03:14:54;;;;;;;12.63;1.90;;;6.00;99.90;;;;;;4993816;28;20023;-89
2022/02/19 03:17:20;;;;;;;9.63;1.40;;;6.00;99.90;;;;;;4995283;28;20026;-88
2022/02/19 03:19:46;;;;;;;12.82;1.58;;;6.00;99.90;;;;;;4994439;28;20034;-88
2022/02/19 03:22:12;;;;;;;11.57;2.35;;;6.00;99.90;;;;;;4995345;28;20492;-87
2022/02/19 03:24:38;;;;;;;7.78;1.83;;;6.00;99.90;;;;;;4993553;28;20060;-88
2022/02/19 03:27:05;;;;;;;11.77;1.75;;;6.00;99.90;;;;;;4994357;28;20185;-88
2022/02/19 03:29:30;;;;;;;10.73;2.35;;;5.90;99.90;;;;;;4995358;28;20034;-87
2022/02/19 03:31:56;;;;;;;6.15;1.50;;;6.00;99.90;;;;;;4993592;28;20512;-87
2022/02/19 03:34:23;;;;;;;12.63;2.08;;;6.00;99.90;;;;;;4994795;28;20030;-88
2022/02/19 03:36:49;;;;;;;16.13;1.85;;;5.90;99.90;;;;;;4993682;28;20141;-89
2022/02/19 03:39:15;;;;;;;10.00;2.10;;;5.90;99.90;;;;;;4995161;28;20043;-89
2022/02/19 03:41:41;;;;;;;9.95;1.95;;;6.00;99.90;;;;;;4995386;28;20488;-89
2022/02/19 03:44:07;;;;;;;10.23;1.70;;;5.90;99.90;;;;;;4993805;28;20420;-88
2022/02/19 03:46:32;;;;;;;12.00;1.95;;;5.90;99.90;;;;;;4994009;28;20034;-89
2022/02/19 03:48:59;;;;;;;9.68;1.48;;;5.90;99.90;;;;;;4994253;28;20031;-88
2022/02/19 03:51:25;;;;;;;12.25;1.77;;;5.90;99.90;;;;;;4995476;28;20033;-89
2022/02/19 03:53:51;;;;;;;11.13;1.90;;;5.90;99.90;;;;;;5007683;28;20143;-87
2022/02/19 03:56:18;;;;;;;10.02;1.83;;;5.90;99.90;;;;;;5007519;28;20034;-88
2022/02/19 03:58:43;;;;;;;12.48;2.00;;;5.90;99.90;;;;;;5005403;28;20035;-86
2022/02/19 04:01:09;;;;;;;14.80;2.08;;;5.90;99.90;;;;;;5003902;28;20094;-88
2022/02/19 04:03:35;;;;;;;11.65;2.22;;;5.90;99.90;;;;;;5002678;28;20057;-86
2022/02/19 04:06:00;;;;;;;14.07;2.28;;;5.90;99.90;;;;;;5000300;28;20125;-88
2022/02/19 04:08:26;;;;;;;19.92;2.83;;;5.90;99.90;;;;;;4997252;28;20042;-88
2022/02/19 04:10:52;;;;;;;10.75;2.33;;;5.90;99.90;;;;;;4998662;28;20093;-87
2022/02/19 04:13:18;;;;;;;16.25;2.30;;;5.90;99.90;;;;;;5003291;28;20027;-86
2022/02/19 04:15:43;;;;;;;9.02;1.80;;;5.90;99.90;;;;;;5000938;28;20031;-89
2022/02/19 04:18:09;;;;;;;11.57;2.30;;;5.90;99.90;;;;;;5004509;28;20085;-89
2022/02/19 04:20:35;;;;;;;10.00;2.13;;;5.90;99.90;;;;;;4994441;28;20102;-88
2022/02/19 04:23:00;;;;;;;11.98;1.92;;;5.90;99.90;;;;;;4998292;28;20046;-89
2022/02/19 04:25:26;;;;;;;14.85;2.75;;;5.90;99.90;;;;;;4997938;28;20026;-88
2022/02/19 04:28:00;;;;;;;9.18;1.85;;;5.90;99.90;;;;;;4997272;28;20030;-89
2022/02/19 04:30:26;;;;;;;14.27;2.58;;;5.90;99.90;;;;;;4997883;28;20038;-89
2022/02/19 04:32:56;;;;;;;12.98;2.53;;;5.90;99.90;;;;;;4997845;28;20115;-89
2022/02/19 04:35:23;;;;;;;13.15;2.25;;;5.90;99.90;;;;;;4998056;28;20038;-89
2022/02/19 04:37:49;;;;;;;10.25;1.67;;;5.90;99.90;;;;;;4997856;28;20055;-89
2022/02/19 04:40:15;;;;;;;10.63;2.17;;;5.90;99.90;;;;;;5005388;28;20181;-86
2022/02/19 04:42:42;;;;;;;12.95;2.22;;;5.90;99.90;;;;;;5007529;28;20046;-90
2022/02/19 04:45:10;;;;;;;13.80;1.90;;;5.90;99.90;;;;;;5010616;28;20035;-86
2022/02/19 04:47:35;;;;;;;10.30;3.00;;;5.80;99.90;;;;;;5012193;28;20046;-86
2022/02/19 04:50:02;;;;;;;10.60;2.10;;;5.90;99.90;;;;;;5012374;28;20117;-86
2022/02/19 04:52:27;;;;;;;14.07;2.45;;;6.00;99.90;;;;;;5012774;28;20058;-87
2022/02/19 04:54:53;;;;;;;10.20;2.45;;;5.90;99.90;;;;;;5015948;28;20026;-84
2022/02/19 04:57:19;;;;;;;12.27;1.90;;;5.90;99.90;;;;;;5010222;28;20404;-89
2022/02/19 04:59:44;;;;;;;12.77;2.13;;;5.90;99.90;;;;;;5011854;28;20038;-87
2022/02/19 05:02:10;;;;;;;11.68;1.83;;;5.90;99.90;;;;;;5009488;28;20042;-88
2022/02/19 05:04:35;;;;;;;13.82;1.98;;;5.90;99.90;;;;;;5009579;28;20377;-85
2022/02/19 05:07:01;;;;;;;11.25;2.58;;;5.90;99.90;;;;;;5008858;28;20045;-86
2022/02/19 05:09:27;;;;;;;11.77;1.90;;;5.90;99.90;;;;;;5002626;28;20125;-87
2022/02/19 05:11:52;;;;;;;9.90;1.88;;;5.90;99.90;;;;;;5009052;28;20045;-86
2022/02/19 05:14:18;;;;;;;11.32;2.53;;;5.90;99.90;;;;;;4999895;28;20169;-89
2022/02/19 05:16:44;;;;;;;13.85;2.10;;;5.90;99.90;;;;;;5001072;28;20038;-89
2022/02/19 05:19:09;;;;;;;13.32;1.65;;;5.80;99.90;;;;;;5004594;28;20026;-89
2022/02/19 05:21:35;;;;;;;14.10;2.00;;;5.80;99.90;;;;;;4999778;28;20477;-89
2022/02/19 05:24:00;;;;;;;15.40;2.28;;;5.90;99.90;;;;;;4996709;28;20068;-89
2022/02/19 05:26:26;;;;;;;11.73;2.45;;;5.80;99.90;;;;;;4998143;28;20038;-88
2022/02/19 05:28:52;;;;;;;11.70;2.17;;;5.90;99.90;;;;;;5014044;28;20559;-88
2022/02/19 05:31:17;;;;;;;13.15;3.00;;;5.80;99.90;;;;;;4997767;28;20068;-88
2022/02/19 05:33:43;;;;;;;15.38;2.10;;;5.80;99.90;;;;;;4997854;28;20085;-88
2022/02/19 05:36:09;;;;;;;11.00;2.22;;;5.70;99.90;;;;;;5009792;28;20097;-85
2022/02/19 05:38:35;;;;;;;9.18;1.52;;;5.50;99.90;;;;;;5018700;28;20054;-83
2022/02/19 05:41:00;;;;;;;14.60;2.65;;;5.40;99.90;;;;;;5016690;28;20026;-86
2022/02/19 05:43:26;;;;;;;9.15;1.65;;;5.40;99.90;;;;;;5017558;28;20215;-85
2022/02/19 05:45:51;;;;;;;9.38;1.70;;;5.40;99.90;;;;;;5016760;28;20038;-85
2022/02/19 05:48:17;;;;;;;14.02;2.10;;;5.30;99.90;;;;;;5016297;28;20033;-84
2022/02/19 05:50:47;;;;;;;15.38;3.08;;;5.30;99.90;;;;;;5031982;28;20038;-85
2022/02/19 05:53:13;;;;;;;13.52;1.90;;;5.40;99.90;;;;;;5020435;28;20022;-89
2022/02/19 05:55:41;;;;;;;11.75;2.60;;;5.40;99.90;;;;;;5000815;28;20025;-90
2022/02/19 05:58:10;;;;;;;7.85;2.67;;;5.50;99.90;;;;;;5000036;28;20033;-88
2022/02/19 06:00:35;;;;;;;9.57;1.60;;;5.60;99.90;;;;;;4999491;28;20079;-90
2022/02/19 06:03:01;;;;;;;13.18;2.58;;;5.60;99.90;;;;;;5016474;28;20046;-88
2022/02/19 06:05:27;;;;;;;10.20;1.70;;;5.70;99.90;;;;;;4999570;28;20038;-90
2022/02/19 06:07:52;;;;;;;8.95;1.58;;;5.70;99.90;;;;;;4998942;28;20038;-89
2022/02/19 06:10:18;;;;;;;17.55;2.05;;;5.70;99.90;;;;;;5016126;28;20110;-90
2022/02/19 06:12:44;;;;;;;14.10;2.30;;;5.70;99.90;;;;;;4999802;28;20040;-89
2022/02/19 06:15:09;;;;;;;7.93;1.45;;;5.70;99.90;;;;;;4999084;28;20034;-89
2022/02/19 06:17:35;;;;;;;14.15;2.22;;;5.70;99.90;;;;;;4998913;28;20041;-89
2022/02/19 06:20:01;;;;;;;13.52;1.98;;;5.70;99.90;;;;;;5000070;28;20030;-89
2022/02/19 06:22:26;;;;;;;10.48;1.98;;;5.70;99.90;;;;;;4999241;28;20046;-87
2022/02/19 06:24:52;;;;;;;10.07;1.90;;;5.70;99.90;;;;;;5016220;28;20054;-89
2022/02/19 06:27:18;;;;;;;11.60;1.92;;;5.70;99.90;;;;;;4998203;28;20034;-90
2022/02/19 06:29:44;;;;;;;14.77;1.98;;;5.70;99.90;;;;;;4998350;28;20384;-90
2022/02/19 06:32:10;;;;;;;8.05;2.15;;;5.70;99.90;;;;;;5015461;28;20034;-88
2022/02/19 06:34:36;;;;;;;10.40;1.92;;;5.60;99.90;;;;;;5015734;28;20069;-89
2022/02/19 06:37:02;;;;;;;12.07;2.10;;;5.60;99.90;;;;;;5014224;28;20053;-89
2022/02/19 06:39:28;;;;;;;10.90;2.80;;;5.50;99.90;;;;;;5015548;28;20112;-90
2022/02/19 06:41:53;;;;;;;12.95;2.28;;;5.50;99.90;;;;;;4997741;28;20125;-89
2022/02/19 06:44:19;;;;;;;11.68;1.88;;;5.50;99.90;;;;;;5014449;28;20030;-87
2022/02/19 06:46:45;;;;;;;10.52;2.38;;;5.50;99.90;;;;;;4997559;28;20032;-89
2022/02/19 06:49:10;;;;;;;16.98;2.15;;;5.60;99.90;;;;;;5015312;28;20050;-89
2022/02/19 06:51:36;;;;;;;10.85;1.90;;;5.60;99.90;;;;;;4997632;28;20077;-88
2022/02/19 06:54:02;;;;;;;12.63;1.77;;;5.60;99.90;;;;;;4997406;28;20030;-88
2022/02/19 06:56:27;;;;;;;9.98;2.08;;;5.60;99.90;;;;;;4997475;28;20076;-88
2022/02/19 06:58:59;;;;;;;10.75;1.80;;;5.60;99.90;;;;;;5015024;28;20092;-89
2022/02/19 07:01:27;;;;;;;11.40;1.77;;;5.70;99.90;;;;;;5015309;28;20073;-87
2022/02/19 07:03:54;;;;;;;10.45;2.13;;;5.60;99.90;;;;;;4997661;28;20033;-87
2022/02/19 07:06:21;;;;;;;18.85;2.53;;;5.60;99.90;;;;;;5015419;28;20026;-88
2022/02/19 07:08:47;;;;;;;10.93;2.75;;;5.60;99.90;;;;;;4997406;28;20078;-88
2022/02/19 07:11:13;;;;;;;12.38;2.05;;;5.70;99.90;;;;;;4997634;28;20037;-88
2022/02/19 07:13:39;;;;;;;10.23;1.77;;;5.60;99.90;;;;;;4998021;28;20034;-88
2022/02/19 07:16:05;;;;;;;12.10;1.83;;;5.70;99.90;;;;;;5015089;28;20034;-89
2022/02/19 07:18:31;;;;;;;11.07;1.65;;;5.70;99.90;;;;;;5015884;28;20109;-87
2022/02/19 07:20:57;;;;;;;13.35;2.20;;;5.70;99.90;;;;;;4998912;28;20499;-87
2022/02/19 07:23:23;;;;;;;9.13;1.50;;;5.70;99.90;;;;;;4997370;28;20042;-89
2022/02/19 07:25:48;;;;;;;16.42;2.00;;;5.60;99.90;;;;;;4997093;28;20121;-88
2022/02/19 07:28:14;;;;;;;10.90;2.00;;;5.70;99.90;;;;;;4997065;28;20056;-87
2022/02/19 07:30:40;;;;;;;11.73;2.15;;;5.70;99.90;;;;;;5014892;28;20034;-89
2022/02/19 07:33:08;;;;;;;10.90;1.80;;;5.70;99.90;;;;;;5015434;28;20034;-89
2022/02/19 07:35:33;;;;;;;16.00;2.13;;;5.70;99.90;;;;;;4997283;28;20038;-89
2022/02/19 07:37:59;;;;;;;16.15;1.92;;;5.70;99.90;;;;;;4999883;28;20149;-90
2022/02/19 07:40:25;;;;;;;13.70;2.20;;;5.70;99.90;;;;;;5004164;28;20362;-87
2022/02/19 07:42:52;;;;;;;14.82;2.60;;;5.70;99.90;;;;;;5001495;28;20491;-89
2022/02/19 07:45:18;;;;;;;11.90;1.83;;;5.80;99.90;;;;;;5000406;28;20060;-87
2022/02/19 07:47:44;;;;;;;13.35;2.55;;;5.80;99.90;;;;;;5002559;28;20492;-87
2022/02/19 07:58:25;;;;;;;11.15;2.22;;;5.90;99.90;;;;;;5019046;28;20099;-90
2022/02/19 08:00:59;;;;;;;11.02;2.05;;;5.80;99.90;;;;;;5000290;28;20038;-90
2022/02/19 08:03:27;;;;;;;13.50;2.55;;;5.90;99.90;;;;;;5000482;28;20049;-89
2022/02/19 08:05:53;;;;;;;11.65;2.28;;;5.90;99.90;;;;;;5001174;28;20042;-88
2022/02/19 08:08:20;;;;;;;10.65;2.05;;;6.00;99.90;;;;;;5018013;28;20373;-89
2022/02/19 08:10:46;;;;;;;13.73;1.95;;;5.90;99.90;;;;;;5000766;28;20063;-90
2022/02/19 08:13:13;;;;;;;9.63;2.15;;;5.80;99.90;;;;;;5018466;28;20092;-89
2022/02/19 08:15:42;;;;;;;7.97;1.65;;;5.80;99.90;;;;;;5000635;28;20053;-89
2022/02/19 08:18:10;;;;;;;12.35;2.15;;;5.90;99.90;;;;;;4999550;28;20447;-88
2022/02/19 08:20:38;;;;;;;18.80;2.25;;;5.90;99.90;;;;;;5000737;28;20037;-90
2022/02/19 08:23:07;;;;;;;9.98;2.30;;;5.90;99.90;;;;;;5001216;28;20042;-89
2022/02/19 08:25:33;;;;;;;11.65;1.48;;;5.90;99.90;;;;;;4999960;28;20033;-89
2022/02/19 08:27:59;;;;;;;11.85;1.73;;;5.90;99.90;;;;;;5000259;28;20030;-89
2022/02/19 08:30:25;;;;;;;10.40;1.63;;;5.90;99.90;;;;;;5000368;28;20070;-88
2022/02/19 08:32:51;;;;;;;11.93;2.00;;;6.00;99.90;;;;;;5000138;28;20037;-88
2022/02/19 08:35:17;;;;;;;11.82;2.10;;;5.90;99.90;;;;;;5000058;28;20041;-88
2022/02/19 08:37:43;;;;;;;16.80;2.08;;;6.00;99.90;;;;;;4999955;28;20050;-88
2022/02/19 08:40:11;;;;;;;10.80;3.13;;;6.00;99.90;;;;;;5000104;28;20510;-88
2022/02/19 08:42:41;;;;;;;10.77;1.73;;;6.00;99.90;;;;;;5000109;28;20078;-85
2022/02/19 08:45:08;;;;;;;11.82;1.92;;;6.00;99.90;;;;;;4999226;28;20042;-85
2022/02/19 08:47:34;;;;;;;9.98;1.70;;;6.10;99.90;;;;;;4999375;28;20037;-86
2022/02/19 08:50:05;;;;;;;9.32;1.98;;;6.10;99.90;;;;;;4999495;28;20038;-85
2022/02/19 08:52:31;;;;;;;10.73;1.75;;;6.10;99.90;;;;;;4994947;28;20395;-84
2022/02/19 08:54:57;;;;;;;12.50;2.05;;;6.10;99.90;;;;;;4996176;28;20045;-87
2022/02/19 08:57:23;;;;;;;12.52;2.00;;;6.20;99.90;;;;;;4996179;28;20034;-87
2022/02/19 08:59:49;;;;;;;14.25;2.83;;;6.30;99.90;;;;;;4996259;28;20029;-87
2022/02/19 09:02:14;;;;;;;10.55;2.05;;;6.30;99.90;;;;;;4996220;28;20104;-86
2022/02/19 09:04:40;;;;;;;10.43;1.67;;;6.40;99.90;;;;;;5014158;28;20041;-85
2022/02/19 09:07:06;;;;;;;9.45;1.77;;;6.50;99.90;;;;;;4995255;28;20038;-85
2022/02/19 09:09:36;;;;;;;14.68;3.00;;;6.60;99.90;;;;;;4995027;28;20037;-86
2022/02/19 09:12:04;;;;;;;11.02;1.77;;;6.70;99.90;;;;;;4996280;28;20037;-86
2022/02/19 09:14:30;;;;;;;8.07;2.05;;;6.90;99.90;;;;;;4996031;28;20041;-85
2022/02/19 09:16:55;;;;;;;9.05;1.50;;;6.90;99.90;;;;;;4995065;28;20033;-85
2022/02/19 09:19:21;;;;;;;8.88;1.52;;;7.00;99.90;;;;;;4995401;28;20022;-86
2022/02/19 09:21:47;;;;;;;13.90;2.17;;;7.00;99.90;;;;;;4997358;28;20061;-88
2022/02/19 09:24:12;;;;;;;14.40;2.13;;;7.10;99.90;;;;;;4998012;28;20041;-86
2022/02/19 09:26:38;;;;;;;16.90;2.65;;;7.20;99.90;;;;;;5013399;28;20077;-88
2022/02/19 09:29:04;;;;;;;13.40;2.45;;;7.20;99.90;;;;;;4996378;28;20132;-88
2022/02/19 09:31:29;;;;;;;13.40;2.60;;;7.10;99.90;;;;;;5014887;28;20041;-88
2022/02/19 09:33:57;;;;;;;13.25;1.95;;;7.20;99.90;;;;;;4996848;28;20112;-86
2022/02/19 09:36:22;;;;;;;8.10;2.00;;;7.20;99.90;;;;;;5013513;28;20209;-86
2022/02/19 09:38:48;;;;;;;11.93;1.98;;;7.30;99.90;;;;;;4988122;28;20159;-87
2022/02/19 09:41:15;;;;;;;12.02;2.10;;;7.40;99.90;;;;;;5014719;28;20033;-87
2022/02/19 09:43:42;;;;;;;11.15;1.83;;;7.40;99.90;;;;;;5014842;28;20122;-86
2022/02/19 09:46:08;;;;;;;10.98;1.80;;;7.40;99.90;;;;;;4997344;28;20463;-87
2022/02/19 09:48:34;;;;;;;7.78;1.95;;;7.50;99.90;;;;;;4997759;28;20052;-90
2022/02/19 09:51:01;;;;;;;9.88;1.60;;;7.40;99.90;;;;;;5014914;28;20032;-86
2022/02/19 09:53:28;;;;;;;12.82;2.45;;;7.20;99.90;;;;;;4997413;28;20057;-84
2022/02/19 09:55:55;;;;;;;10.40;2.00;;;7.10;99.90;;;;;;5012957;28;20030;-85
2022/02/19 09:58:22;;;;;;;14.82;1.98;;;7.10;99.90;;;;;;4995804;28;20461;-85
2022/02/19 10:00:53;;;;;;;15.95;2.72;;;7.20;99.90;;;;;;4996295;28;20479;-84
2022/02/19 10:03:21;;;;;;;10.98;1.95;;;7.20;99.90;;;;;;4996202;28;20085;-86
2022/02/19 10:05:48;;;;;;;9.55;1.67;;;7.50;99.90;;;;;;5006388;28;20094;-85
2022/02/19 10:08:14;;;;;;;9.38;2.20;;;8.00;99.90;;;;;;5027437;28;20097;-82
2022/02/19 10:10:49;;;;;;;10.20;2.58;;;8.30;99.90;;;;;;5010930;28;20125;-83
2022/02/19 10:13:31;;;;;;;8.45;1.77;;;8.50;99.90;;;;;;5007688;28;20026;-84
2022/02/19 10:15:57;;;;;;;14.85;2.60;;;8.50;99.90;;;;;;5022659;28;20042;-85
2022/02/19 10:18:31;;;;;;;9.45;2.53;;;8.60;99.90;;;;;;5018729;28;20057;-90
2022/02/19 10:21:15;;;;;;;8.73;1.52;;;9.00;99.90;;;;;;5019051;28;20034;-91
2022/02/19 10:23:42;;;;;;;;;;;10.40;99.90;;;;;;5001501;28;20041;-85
2022/02/19 10:26:08;;;;;;;14.10;2.72;;;10.70;99.90;;;;;;4998808;28;19910;-90
2022/02/19 10:28:35;;;;;;;10.32;2.47;;;11.00;99.90;;;;;;4997749;28;20724;-89
2022/02/19 10:31:14;;;;;;;9.25;1.77;;;11.60;99.90;;;;;;4998783;28;20117;-90
2022/02/19 10:33:41;;;;;;;9.80;1.90;;;12.20;99.90;;;;;;4999405;28;20033;-91
2022/02/19 10:36:21;;;;;;;9.70;2.10;;;12.00;99.90;;;;;;5007184;28;20038;-88
2022/02/19 10:38:52;;;;;;;11.52;2.47;;;11.40;99.90;;;;;;4999101;28;20454;-88
2022/02/19 10:41:18;;;;;;;7.70;2.28;;;10.50;99.90;;;;;;4998265;28;20041;-86
2022/02/19 10:43:43;;;;;;;10.07;1.85;;;9.90;99.90;;;;;;5012920;28;20183;-87
2022/02/19 10:46:11;;;;;;;12.95;2.60;;;9.70;99.90;;;;;;5015919;28;20033;-90
2022/02/19 10:48:38;;;;;;;10.07;2.47;;;9.40;99.90;;;;;;5005187;28;20069;-84
2022/02/19 10:51:21;;;;;;;8.98;1.27;;;9.30;99.90;;;;;;5024881;28;20029;-83
2022/02/19 10:53:57;;;;;;;;;;;9.00;99.90;;;;;;4999708;28;20069;-88
2022/02/19 10:56:26;;;;;;;7.07;1.42;;;9.40;99.90;;;;;;5017026;28;19913;-89
2022/02/19 10:59:11;;;;;;;10.48;1.75;;;11.00;99.90;;;;;;4996326;28;20076;-90
2022/02/19 11:01:41;;;;;;;9.20;2.38;;;12.20;99.90;;;;;;5016319;28;20045;-91
2022/02/19 11:04:08;;;;;;;11.77;2.05;;;12.60;99.90;;;;;;5017091;28;20037;-86
2022/02/19 11:06:35;;;;;;;14.32;2.88;;;12.40;99.90;;;;;;4999612;28;20030;-89
2022/02/19 11:09:05;;;;;;;7.88;1.95;;;11.90;99.90;;;;;;4999180;28;20562;-86
2022/02/19 11:11:39;;;;;;;15.57;2.50;;;11.80;99.90;;;;;;5021350;28;20038;-87
2022/02/19 11:14:09;;;;;;;12.70;1.83;;;12.20;99.90;;;;;;5021506;28;20030;-89
2022/02/19 11:16:37;;;;;;;9.70;2.17;;;11.60;99.90;;;;;;5002740;28;20104;-87
2022/02/19 11:19:04;;;;;;;9.43;1.98;;;10.70;99.90;;;;;;5000332;28;20055;-88
2022/02/19 11:21:32;;;;;;;9.85;2.10;;;11.00;99.90;;;;;;5013552;28;20041;-87
2022/02/19 11:24:04;;;;;;;11.38;1.83;;;12.20;99.90;;;;;;5019332;28;20046;-87
2022/02/19 11:26:32;;;;;;;11.35;2.65;;;12.20;99.90;;;;;;4999400;28;20026;-87
2022/02/19 11:29:10;;;;;;;11.20;2.13;;;12.10;99.90;;;;;;5003372;28;20040;-86
2022/02/19 11:31:40;;;;;;;9.07;1.80;;;12.80;99.90;;;;;;5003642;28;20403;-91
2022/02/19 11:34:09;;;;;;;11.43;1.73;;;13.40;99.90;;;;;;5004806;28;20033;-92
2022/02/19 11:36:35;;;;;;;9.32;2.03;;;13.10;99.90;;;;;;5007312;28;20054;-90
2022/02/19 11:39:04;;;;;;;10.77;1.98;;;12.80;99.90;;;;;;5002018;28;20026;-90
2022/02/19 11:41:40;;;;;;;11.60;1.63;;;12.20;99.90;;;;;;5019328;28;20042;-90
2022/02/19 11:44:24;;;;;;;12.50;2.15;;;11.40;99.90;;;;;;5018083;28;20043;-91
2022/02/19 11:46:51;;;;;;;8.60;1.30;;;10.40;99.90;;;;;;5022397;28;20070;-91
2022/02/19 11:49:21;;;;;;;9.27;1.30;;;9.90;99.90;;;;;;5007568;28;20053;-92
2022/02/19 11:52:15;;;;;;;8.35;1.70;;;9.90;99.90;;;;;;5005310;28;20038;-92
2022/02/19 11:54:41;;;;;;;8.18;1.75;;;11.00;99.90;;;;;;5022271;28;20038;-91
2022/02/19 11:57:17;;;;;;;7.70;1.45;;;12.30;99.90;;;;;;5006833;28;20033;-91
2022/02/19 11:59:47;;;;;;;7.78;1.65;;;13.10;99.90;;;;;;5011243;28;20075;-90
2022/02/19 12:02:16;;;;;;;11.15;2.10;;;13.30;99.90;;;;;;5010787;28;20042;-92
2022/02/19 12:04:42;;;;;;;11.52;2.15;;;12.90;99.90;;;;;;5024375;28;20088;-90
2022/02/19 12:07:08;;;;;;;9.82;1.90;;;12.90;99.90;;;;;;5011426;28;20018;-85
2022/02/19 12:09:54;;;;;;;9.15;1.80;;;12.70;99.90;;;;;;5030702;28;20041;-87
2022/02/19 12:12:19;;;;;;;7.63;1.80;;;12.00;99.90;;;;;;5011525;28;20065;-88
2022/02/19 12:14:47;;;;;;;9.80;2.00;;;11.30;99.90;;;;;;4999426;28;20030;-90
2022/02/19 12:17:15;;;;;;;9.55;2.10;;;10.70;99.90;;;;;;5002600;28;20053;-89
2022/02/19 12:19:55;;;;;;;8.43;1.67;;;10.90;99.90;;;;;;4981956;28;20402;-86
2022/02/19 12:22:34;;;;;;;6.28;1.40;;;11.20;99.90;;;;;;4983979;28;20133;-88
2022/02/19 12:25:01;;;;;;;11.13;1.73;;;10.70;99.90;;;;;;4999567;28;20039;-89
2022/02/19 12:27:27;;;;;;;10.70;1.80;;;9.90;99.90;;;;;;4988813;28;20029;-91
2022/02/19 12:30:26;;;;;;;10.82;1.60;;;9.50;99.90;;;;;;4986139;28;20042;-88
2022/02/19 12:32:55;;;;;;;10.32;2.22;;;9.40;99.90;;;;;;4996722;28;20087;-91
2022/02/19 12:35:33;;;;;;;10.68;1.83;;;10.10;99.90;;;;;;4999317;28;20176;-91
2022/02/19 12:37:59;;;;;;;7.82;1.60;;;10.70;99.90;;;;;;5011835;28;20049;-92
2022/02/19 12:40:24;;;;;;;9.90;1.58;;;10.90;99.90;;;;;;4998889;28;20022;-90
2022/02/19 12:42:50;;;;;;;10.60;1.98;;;11.20;99.90;;;;;;4999387;28;20046;-92
2022/02/19 12:45:17;;;;;;;7.00;1.52;;;11.40;99.90;;;;;;5003699;28;20036;-91
2022/02/19 12:47:43;;;;;;;6.00;1.60;;;11.60;99.90;;;;;;5001245;28;20022;-92
2022/02/19 12:50:12;;;;;;;9.98;1.73;;;11.90;99.90;;;;;;5000817;28;20034;-88
2022/02/19 12:52:38;;;;;;;4.97;1.30;;;12.20;99.90;;;;;;5001996;28;20049;-92
2022/02/19 12:55:11;;;;;;;6.43;1.48;;;12.70;99.90;;;;;;5006509;28;20026;-87
2022/02/19 12:57:36;;;;;;;10.20;1.70;;;13.00;99.90;;;;;;4984080;28;20408;-90